createdAt,value
2022-12-19T00:01:02.647Z,11.60
2022-12-19T00:03:35.052Z,11.60
2022-12-19T00:06:08.644Z,11.60
2022-12-19T00:08:39.329Z,11.60
2022-12-19T00:11:09.806Z,11.60
2022-12-19T00:13:41.424Z,11.70
2022-12-19T00:16:19.755Z,11.70
2022-12-19T00:18:54.800Z,11.60
2022-12-19T00:21:29.074Z,11.60
2022-12-19T00:24:01.659Z,11.60
2022-12-19T00:26:35.468Z,11.60
2022-12-19T00:29:14.092Z,11.60
2022-12-19T00:31:45.080Z,11.60
2022-12-19T00:34:18.031Z,11.60
2022-12-19T00:36:51.580Z,11.60
2022-12-19T00:39:22.115Z,11.60
2022-12-19T00:41:52.886Z,11.60
2022-12-19T00:44:27.779Z,11.60
2022-12-19T00:46:58.580Z,11.60
2022-12-19T00:49:32.086Z,11.60
2022-12-19T00:52:03.680Z,11.60
2022-12-19T00:54:34.216Z,11.60
2022-12-19T00:57:25.775Z,11.60
2022-12-19T00:59:56.025Z,11.60
2022-12-19T01:02:29.580Z,11.60
2022-12-19T01:05:00.455Z,11.60
2022-12-19T01:10:18.036Z,11.60
2022-12-19T01:12:48.540Z,11.60
2022-12-19T01:15:25.483Z,11.60
2022-12-19T01:17:56.071Z,11.60
2022-12-19T01:20:29.898Z,11.60
2022-12-19T01:23:00.939Z,11.60
2022-12-19T01:25:40.511Z,11.60
2022-12-19T01:28:17.329Z,11.70
2022-12-19T01:30:49.451Z,11.70
2022-12-19T01:33:24.287Z,11.70
2022-12-19T01:35:57.187Z,11.70
2022-12-19T01:38:30.284Z,11.70
2022-12-19T01:41:03.816Z,11.70
2022-12-19T01:43:57.986Z,11.70
2022-12-19T01:46:34.134Z,11.70
2022-12-19T01:49:09.384Z,11.70
2022-12-19T01:51:48.870Z,11.70
2022-12-19T01:54:30.248Z,11.70
2022-12-19T01:57:02.346Z,11.70
2022-12-19T01:59:42.958Z,11.70
2022-12-19T02:02:40.482Z,11.70
2022-12-19T02:05:12.252Z,11.70
2022-12-19T02:10:28.296Z,11.70
2022-12-19T02:13:00.334Z,11.70
2022-12-19T02:15:42.053Z,11.70
2022-12-19T02:18:16.538Z,11.70
2022-12-19T02:21:22.480Z,11.80
2022-12-19T02:24:24.764Z,11.80
2022-12-19T02:27:15.610Z,11.80
2022-12-19T02:29:58.186Z,11.80
2022-12-19T02:32:46.817Z,11.80
2022-12-19T02:35:23.178Z,11.80
2022-12-19T02:38:28.743Z,11.80
2022-12-19T02:41:10.239Z,11.80
2022-12-19T02:43:46.279Z,11.80
2022-12-19T02:46:25.737Z,11.80
2022-12-19T02:48:58.509Z,11.80
2022-12-19T02:51:29.312Z,11.80
2022-12-19T02:54:00.169Z,11.80
2022-12-19T02:56:51.678Z,11.80
2022-12-19T02:59:37.101Z,11.80
2022-12-19T03:03:01.175Z,11.80
2022-12-19T03:06:13.451Z,11.80
2022-12-19T03:08:46.667Z,11.80
2022-12-19T03:11:18.353Z,11.80
2022-12-19T03:14:02.452Z,11.80
2022-12-19T03:16:35.771Z,11.80
2022-12-19T03:19:11.379Z,11.80
2022-12-19T03:21:52.469Z,11.90
2022-12-19T03:24:23.387Z,11.90
2022-12-19T03:27:17.889Z,11.90
2022-12-19T03:30:10.407Z,12.00
2022-12-19T03:32:44.094Z,12.00
2022-12-19T03:35:28.998Z,12.00
2022-12-19T03:38:03.588Z,12.00
2022-12-19T03:40:36.394Z,12.00
2022-12-19T03:43:14.452Z,12.00
2022-12-19T03:46:07.126Z,12.00
2022-12-19T03:48:42.497Z,12.10
2022-12-19T03:51:37.703Z,12.10
2022-12-19T03:54:18.576Z,12.10
2022-12-19T03:56:56.179Z,12.00
2022-12-19T03:59:53.895Z,12.10
2022-12-19T04:02:26.120Z,12.10
2022-12-19T04:05:02.617Z,12.10
2022-12-19T04:10:22.144Z,12.10
2022-12-19T04:13:13.459Z,12.10
2022-12-19T04:16:10.762Z,12.20
2022-12-19T04:18:47.144Z,12.20
2022-12-19T04:21:32.197Z,12.20
2022-12-19T04:24:22.230Z,12.20
2022-12-19T04:26:54.220Z,12.20
2022-12-19T04:29:26.528Z,12.20
2022-12-19T04:31:58.672Z,12.30
2022-12-19T04:34:32.093Z,12.20
2022-12-19T04:37:02.842Z,12.20
2022-12-19T04:39:35.533Z,12.20
2022-12-19T04:42:07.743Z,12.30
2022-12-19T04:44:40.291Z,12.30
2022-12-19T04:47:11.011Z,12.30
2022-12-19T04:49:41.585Z,12.30
2022-12-19T04:52:12.240Z,12.30
2022-12-19T04:54:45.761Z,12.30
2022-12-19T04:57:44.550Z,12.30
2022-12-19T05:00:15.924Z,12.30
2022-12-19T05:02:48.060Z,12.30
2022-12-19T05:05:20.135Z,12.30
2022-12-19T05:07:50.575Z,12.30
2022-12-19T05:10:21.392Z,12.30
2022-12-19T05:12:51.795Z,12.30
2022-12-19T05:15:22.592Z,12.40
2022-12-19T05:17:53.067Z,12.30
2022-12-19T05:20:23.824Z,12.40
2022-12-19T05:22:54.406Z,12.40
2022-12-19T05:25:24.994Z,12.40
2022-12-19T05:27:56.468Z,12.40
2022-12-19T05:30:28.695Z,12.30
2022-12-19T05:32:59.302Z,12.30
2022-12-19T05:35:29.868Z,12.40
2022-12-19T05:38:03.489Z,12.40
2022-12-19T05:40:36.650Z,12.40
2022-12-19T05:43:10.364Z,12.40
2022-12-19T05:45:41.761Z,12.40
2022-12-19T05:48:23.686Z,12.40
2022-12-19T05:51:16.344Z,12.40
2022-12-19T05:53:47.919Z,12.40
2022-12-19T05:56:24.015Z,12.40
2022-12-19T05:58:55.807Z,12.40
2022-12-19T06:01:29.015Z,12.40
2022-12-19T06:04:00.497Z,12.40
2022-12-19T06:06:31.077Z,12.40
2022-12-19T06:09:02.949Z,12.40
2022-12-19T06:11:34.286Z,12.40
2022-12-19T06:14:12.957Z,12.50
2022-12-19T06:16:50.885Z,12.40
2022-12-19T06:19:25.038Z,12.40
2022-12-19T06:21:56.421Z,12.50
2022-12-19T06:24:27.382Z,12.40
2022-12-19T06:27:02.631Z,12.40
2022-12-19T06:29:34.944Z,12.40
2022-12-19T06:32:08.782Z,12.40
2022-12-19T06:37:38.914Z,12.40
2022-12-19T06:40:30.673Z,12.50
2022-12-19T06:43:01.030Z,12.50
2022-12-19T06:45:32.776Z,12.40
2022-12-19T06:48:03.520Z,12.50
2022-12-19T06:50:33.889Z,12.40
2022-12-19T06:53:10.200Z,12.40
2022-12-19T06:55:45.990Z,12.50
2022-12-19T06:58:24.129Z,12.50
2022-12-19T07:00:55.904Z,12.50
2022-12-19T07:03:29.398Z,12.50
2022-12-19T07:05:59.862Z,12.50
2022-12-19T07:08:30.937Z,12.50
2022-12-19T07:11:02.649Z,12.50
2022-12-19T07:13:38.223Z,12.50
2022-12-19T07:16:09.757Z,12.50
2022-12-19T07:18:42.867Z,12.50
2022-12-19T07:21:14.884Z,12.50
2022-12-19T07:23:53.425Z,12.50
2022-12-19T07:26:25.521Z,12.50
2022-12-19T07:28:56.526Z,12.50
2022-12-19T07:31:27.146Z,12.50
2022-12-19T07:33:57.732Z,12.50
2022-12-19T07:36:28.271Z,12.60
2022-12-19T07:38:58.693Z,12.50
2022-12-19T07:41:28.958Z,12.50
2022-12-19T07:43:59.328Z,12.50
2022-12-19T07:46:32.724Z,12.50
2022-12-19T07:49:03.380Z,12.60
2022-12-19T07:51:36.985Z,12.60
2022-12-19T07:56:54.325Z,12.60
2022-12-19T07:59:30.336Z,12.60
2022-12-19T08:02:03.036Z,12.60
2022-12-19T08:04:36.933Z,12.60
2022-12-19T08:07:08.574Z,12.60
2022-12-19T08:09:39.180Z,12.60
2022-12-19T08:12:10.841Z,12.60
2022-12-19T08:14:41.161Z,12.60
2022-12-19T08:19:55.397Z,12.60
2022-12-19T08:22:25.919Z,12.60
2022-12-19T08:24:56.303Z,12.60
2022-12-19T08:27:27.088Z,12.60
2022-12-19T08:30:01.404Z,12.60
2022-12-19T08:32:33.508Z,12.60
2022-12-19T08:35:07.444Z,12.60
2022-12-19T08:37:43.361Z,12.60
2022-12-19T08:40:14.280Z,12.60
2022-12-19T08:42:48.173Z,12.60
2022-12-19T08:45:20.613Z,12.60
2022-12-19T08:47:54.193Z,12.60
2022-12-19T08:50:24.781Z,12.60
2022-12-19T08:52:55.372Z,12.60
2022-12-19T08:55:30.013Z,12.60
2022-12-19T08:58:01.672Z,12.60
2022-12-19T09:00:32.260Z,12.60
2022-12-19T09:03:02.811Z,12.60
2022-12-19T09:06:03.258Z,12.50
2022-12-19T09:08:25.476Z,12.50
2022-12-19T09:11:10.919Z,12.50
2022-12-19T09:13:43.192Z,12.50
2022-12-19T09:16:26.308Z,12.50
2022-12-19T09:19:02.483Z,12.50
2022-12-19T09:21:32.899Z,12.50
2022-12-19T09:24:07.831Z,12.50
2022-12-19T09:26:41.499Z,12.50
2022-12-19T09:29:19.463Z,12.50
2022-12-19T09:31:56.577Z,12.50
2022-12-19T09:34:38.978Z,12.50
2022-12-19T09:37:17.180Z,12.50
2022-12-19T09:39:48.996Z,12.50
2022-12-19T09:42:30.924Z,12.40
2022-12-19T09:45:03.998Z,12.40
2022-12-19T09:47:39.554Z,12.40
2022-12-19T09:50:31.194Z,12.50
2022-12-19T09:53:09.383Z,12.40
2022-12-19T09:55:43.311Z,12.40
2022-12-19T09:58:45.642Z,12.40
2022-12-19T10:01:34.497Z,12.40
2022-12-19T10:04:12.762Z,12.40
2022-12-19T10:12:33.335Z,12.40
2022-12-19T10:12:44.449Z,12.40
2022-12-19T10:15:33.372Z,12.40
2022-12-19T10:18:12.408Z,12.40
2022-12-19T10:20:51.622Z,12.40
2022-12-19T10:23:56.107Z,12.30
2022-12-19T10:26:37.619Z,12.40
2022-12-19T10:29:37.302Z,12.30
2022-12-19T10:32:27.768Z,12.30
2022-12-19T10:34:58.536Z,12.30
2022-12-19T10:37:42.371Z,12.30
2022-12-19T10:40:29.062Z,12.30
2022-12-19T10:43:53.839Z,12.30
2022-12-19T10:46:44.380Z,12.30
2022-12-19T10:49:32.779Z,12.30
2022-12-19T10:52:11.274Z,12.30
2022-12-19T10:54:43.005Z,12.30
2022-12-19T10:57:26.892Z,12.30
2022-12-19T11:00:12.897Z,12.20
2022-12-19T11:02:49.531Z,12.30
2022-12-19T11:05:47.577Z,12.20
2022-12-19T11:08:32.952Z,12.30
2022-12-19T11:12:28.450Z,12.30
2022-12-19T11:18:56.752Z,12.20
2022-12-19T11:23:19.360Z,12.20
2022-12-19T11:29:34.684Z,12.20
2022-12-19T11:29:40.715Z,12.20
2022-12-19T11:30:08.860Z,12.30
2022-12-19T11:30:35.710Z,12.20
2022-12-19T11:34:25.008Z,12.20
2022-12-19T11:37:20.983Z,12.20
2022-12-19T11:40:23.065Z,12.20
2022-12-19T11:43:41.873Z,12.20
2022-12-19T11:46:26.572Z,12.20
2022-12-19T11:51:45.671Z,12.20
2022-12-19T11:54:26.325Z,12.20
2022-12-19T11:56:59.112Z,12.20
2022-12-19T11:59:44.788Z,12.20
2022-12-19T12:02:25.924Z,12.20
2022-12-19T12:05:10.983Z,12.20
2022-12-19T12:08:38.071Z,12.10
2022-12-19T12:16:38.705Z,12.10
2022-12-19T12:21:50.667Z,12.10
2022-12-19T12:31:01.147Z,12.10
2022-12-19T12:31:29.757Z,12.10
2022-12-19T12:31:46.438Z,12.10
2022-12-19T12:31:50.629Z,12.10
2022-12-19T12:35:51.513Z,12.10
2022-12-19T12:39:20.681Z,12.10
2022-12-19T12:42:14.987Z,12.10
2022-12-19T12:44:47.813Z,12.10
2022-12-19T12:47:31.833Z,12.10
2022-12-19T12:50:20.971Z,12.10
2022-12-19T12:53:01.381Z,12.10
2022-12-19T12:55:44.450Z,12.10
2022-12-19T12:59:07.100Z,12.10
2022-12-19T13:01:43.579Z,12.10
2022-12-19T13:04:15.673Z,12.10
2022-12-19T13:07:13.543Z,12.10
2022-12-19T13:09:44.764Z,12.10
2022-12-19T13:12:39.934Z,12.10
2022-12-19T13:15:41.157Z,12.10
2022-12-19T13:18:35.750Z,12.10
2022-12-19T13:21:09.045Z,12.10
2022-12-19T13:23:39.656Z,12.10
2022-12-19T13:26:24.466Z,12.10
2022-12-19T13:28:55.538Z,12.10
2022-12-19T13:31:26.289Z,12.10
2022-12-19T13:33:56.826Z,12.10
2022-12-19T13:39:51.640Z,12.00
2022-12-19T13:40:13.548Z,12.00
2022-12-19T13:43:17.719Z,12.10
2022-12-19T13:45:57.788Z,12.00
2022-12-19T13:48:49.401Z,12.00
2022-12-19T13:51:20.002Z,12.00
2022-12-19T13:53:59.498Z,12.00
2022-12-19T13:56:36.279Z,12.00
2022-12-19T13:59:09.656Z,12.00
2022-12-19T14:01:43.858Z,12.00
2022-12-19T14:04:28.233Z,12.00
2022-12-19T14:07:08.464Z,12.00
2022-12-19T14:11:29.845Z,12.00
2022-12-19T14:13:53.345Z,12.00
2022-12-19T14:15:58.510Z,12.00
2022-12-19T14:18:44.891Z,12.00
2022-12-19T14:22:03.851Z,12.00
2022-12-19T14:24:26.577Z,12.00
2022-12-19T14:28:20.122Z,12.00
2022-12-19T14:30:28.413Z,12.00
2022-12-19T14:33:45.481Z,12.00
2022-12-19T14:36:05.958Z,12.00
2022-12-19T14:39:27.477Z,12.00
2022-12-19T14:41:52.628Z,12.00
2022-12-19T14:53:10.863Z,11.90
2022-12-19T14:54:40.048Z,12.00
2022-12-19T14:59:36.368Z,11.90
2022-12-19T15:05:19.548Z,11.90
2022-12-19T15:07:54.509Z,11.90
2022-12-19T15:11:07.401Z,11.90
2022-12-19T15:14:52.117Z,11.90
2022-12-19T15:16:33.450Z,11.90
2022-12-19T15:19:04.944Z,11.90
2022-12-19T15:21:35.283Z,11.90
2022-12-19T15:24:05.741Z,11.90
2022-12-19T15:26:38.313Z,11.90
2022-12-19T15:34:51.069Z,11.90
2022-12-19T15:37:22.135Z,11.90
2022-12-19T15:39:53.661Z,11.90
2022-12-19T15:42:26.334Z,11.90
2022-12-19T15:44:59.494Z,11.90
2022-12-19T15:47:34.578Z,11.90
2022-12-19T15:50:25.666Z,11.90
2022-12-19T15:52:59.456Z,11.90
2022-12-19T15:55:32.168Z,11.80
2022-12-19T15:58:06.915Z,11.80
2022-12-19T16:00:38.786Z,11.80
2022-12-19T16:03:23.450Z,11.80
2022-12-19T16:05:55.628Z,11.80
2022-12-19T16:08:29.439Z,11.80
2022-12-19T16:11:02.361Z,11.80
2022-12-19T16:13:39.793Z,11.80
2022-12-19T16:16:15.811Z,11.80
2022-12-19T16:18:49.293Z,11.80
2022-12-19T16:21:31.280Z,11.80
2022-12-19T16:24:06.207Z,11.80
2022-12-19T16:26:39.341Z,11.80
2022-12-19T16:29:41.840Z,11.80
2022-12-19T16:32:17.501Z,11.80
2022-12-19T16:34:48.279Z,11.80
2022-12-19T16:37:19.890Z,11.80
2022-12-19T16:39:51.710Z,11.80
2022-12-19T16:42:23.257Z,11.80
2022-12-19T16:44:54.825Z,11.80
2022-12-19T16:47:25.729Z,11.80
2022-12-19T16:49:56.419Z,11.80
2022-12-19T16:52:26.731Z,11.80
2022-12-19T16:54:57.249Z,11.80
2022-12-19T16:57:27.837Z,11.80
2022-12-19T16:59:58.227Z,11.80
2022-12-19T17:02:48.723Z,11.80
2022-12-19T17:05:23.138Z,11.80
2022-12-19T17:07:54.638Z,11.80
2022-12-19T17:13:31.702Z,11.80
2022-12-19T17:16:04.159Z,11.80
2022-12-19T17:18:39.010Z,11.80
2022-12-19T17:21:12.046Z,11.70
2022-12-19T17:23:42.940Z,11.80
2022-12-19T17:26:17.608Z,11.80
2022-12-19T17:28:49.530Z,11.70
2022-12-19T17:31:28.993Z,11.70
2022-12-19T17:34:00.451Z,11.70
2022-12-19T17:36:37.586Z,11.70
2022-12-19T17:39:27.125Z,11.70
2022-12-19T17:42:04.193Z,11.80
2022-12-19T17:44:35.800Z,11.70
2022-12-19T17:47:09.340Z,11.70
2022-12-19T17:49:50.084Z,11.70
2022-12-19T17:52:22.527Z,11.70
2022-12-19T17:54:53.092Z,11.70
2022-12-19T17:57:23.774Z,11.60
2022-12-19T17:59:54.293Z,11.60
2022-12-19T18:02:29.534Z,11.70
2022-12-19T18:05:02.865Z,11.70
2022-12-19T18:07:33.760Z,11.70
2022-12-19T18:10:05.014Z,11.70
2022-12-19T18:12:35.544Z,11.70
2022-12-19T18:15:07.264Z,11.70
2022-12-19T18:17:39.327Z,11.70
2022-12-19T18:20:34.744Z,11.70
2022-12-19T18:23:12.435Z,11.60
2022-12-19T18:25:43.313Z,11.60
2022-12-19T18:28:14.614Z,11.60
2022-12-19T18:30:48.760Z,11.60
2022-12-19T18:33:23.132Z,11.60
2022-12-19T18:35:53.860Z,11.60
2022-12-19T18:38:25.651Z,11.60
2022-12-19T18:40:56.317Z,11.60
2022-12-19T18:43:29.037Z,11.60
2022-12-19T18:48:46.831Z,11.60
2022-12-19T18:54:24.630Z,11.60
2022-12-19T18:56:55.236Z,11.60
2022-12-19T18:59:26.666Z,11.60
2022-12-19T19:01:57.385Z,11.60
2022-12-19T19:04:28.007Z,11.60
2022-12-19T19:06:58.543Z,11.60
2022-12-19T19:09:28.779Z,11.60
2022-12-19T19:12:28.581Z,11.60
2022-12-19T19:14:59.443Z,11.60
2022-12-19T19:17:33.187Z,11.60
2022-12-19T19:20:04.853Z,11.60
2022-12-19T19:22:35.729Z,11.60
2022-12-19T19:25:08.018Z,11.60
2022-12-19T19:27:39.638Z,11.60
2022-12-19T19:33:00.177Z,11.60
2022-12-19T19:35:30.854Z,11.60
2022-12-19T19:38:08.088Z,11.60
2022-12-19T19:40:39.319Z,11.60
2022-12-19T19:43:10.151Z,11.60
2022-12-19T19:45:43.486Z,11.60
2022-12-19T19:48:14.299Z,11.60
2022-12-19T19:50:44.887Z,11.60
2022-12-19T19:53:15.749Z,11.50
2022-12-19T19:55:46.617Z,11.50
2022-12-19T19:58:17.124Z,11.50
2022-12-19T20:00:47.658Z,11.50
2022-12-19T20:03:22.599Z,11.60
2022-12-19T20:06:01.623Z,11.50
2022-12-19T20:08:39.178Z,11.50
2022-12-19T20:11:11.911Z,11.50
2022-12-19T20:13:42.462Z,11.50
2022-12-19T20:16:18.383Z,11.50
2022-12-19T20:18:51.189Z,11.50
2022-12-19T20:21:22.966Z,11.50
2022-12-19T20:23:53.780Z,11.50
2022-12-19T20:26:24.454Z,11.50
2022-12-19T20:28:55.099Z,11.50
2022-12-19T20:31:26.907Z,11.50
2022-12-19T20:33:58.189Z,11.50
2022-12-19T20:36:28.761Z,11.50
2022-12-19T20:38:59.459Z,11.50
2022-12-19T20:41:30.335Z,11.50
2022-12-19T20:44:01.195Z,11.50
2022-12-19T20:46:31.975Z,11.50
2022-12-19T20:49:02.583Z,11.50
2022-12-19T20:51:33.009Z,11.50
2022-12-19T20:54:03.992Z,11.50
2022-12-19T20:56:54.518Z,11.50
2022-12-19T20:59:25.094Z,11.50
2022-12-19T21:01:57.501Z,11.50
2022-12-19T21:04:28.446Z,11.50
2022-12-19T21:06:59.273Z,11.50
2022-12-19T21:09:30.168Z,11.50
2022-12-19T21:12:00.673Z,11.50
2022-12-19T21:17:17.800Z,11.50
2022-12-19T21:19:48.196Z,11.60
2022-12-19T21:22:20.317Z,11.50
2022-12-19T21:24:50.752Z,11.60
2022-12-19T21:27:23.274Z,11.60
2022-12-19T21:29:53.956Z,11.50
2022-12-19T21:32:24.602Z,11.50
2022-12-19T21:34:55.486Z,11.60
2022-12-19T21:37:26.099Z,11.50
2022-12-19T21:39:56.915Z,11.50
2022-12-19T21:42:27.480Z,11.50
2022-12-19T21:44:57.825Z,11.60
2022-12-19T21:47:28.368Z,11.50
2022-12-19T21:49:58.756Z,11.50
2022-12-19T21:52:54.246Z,11.50
2022-12-19T21:55:26.182Z,11.50
2022-12-19T21:57:56.752Z,11.50
2022-12-19T22:00:27.321Z,11.50
2022-12-19T22:03:14.963Z,11.50
2022-12-19T22:05:46.191Z,11.50
2022-12-19T22:08:17.083Z,11.50
2022-12-19T22:13:32.448Z,11.50
2022-12-19T22:16:03.865Z,11.50
2022-12-19T22:18:36.726Z,11.50
2022-12-19T22:21:08.090Z,11.60
2022-12-19T22:23:40.237Z,11.60
2022-12-19T22:26:22.783Z,11.50
2022-12-19T22:28:57.331Z,11.50
2022-12-19T22:31:35.069Z,11.50
2022-12-19T22:34:09.171Z,11.50
2022-12-19T22:36:41.777Z,11.50
2022-12-19T22:39:15.862Z,11.50
2022-12-19T22:41:48.587Z,11.50
2022-12-19T22:44:27.883Z,11.50
2022-12-19T22:46:58.444Z,11.50
2022-12-19T22:49:29.200Z,11.50
2022-12-19T22:51:59.806Z,11.50
2022-12-19T22:54:30.580Z,11.50
2022-12-19T22:57:01.846Z,11.50
2022-12-19T22:59:33.619Z,11.50
2022-12-19T23:02:04.261Z,11.50
2022-12-19T23:04:34.704Z,11.50
2022-12-19T23:07:05.573Z,11.50
2022-12-19T23:09:36.109Z,11.50
2022-12-19T23:12:06.663Z,11.50
2022-12-19T23:14:37.185Z,11.50
2022-12-19T23:17:08.140Z,11.50
2022-12-19T23:19:41.020Z,11.50
2022-12-19T23:22:12.007Z,11.50
2022-12-19T23:24:42.945Z,11.50
2022-12-19T23:27:13.558Z,11.50
2022-12-19T23:30:07.063Z,11.50
2022-12-19T23:32:37.847Z,11.50
2022-12-19T23:35:08.674Z,11.50
2022-12-19T23:37:39.214Z,11.50
2022-12-19T23:40:10.387Z,11.50
2022-12-19T23:42:40.843Z,11.50
2022-12-19T23:45:12.002Z,11.50
2022-12-19T23:47:42.570Z,11.50
2022-12-19T23:50:13.428Z,11.50
2022-12-19T23:52:45.763Z,11.50
2022-12-19T23:55:16.333Z,11.50
2022-12-19T23:57:47.134Z,11.50
